sensor_id;sensor_type;location;lat;lon;timestamp;temperature;humidity
6738;DHT22;3406;49.902;8.596;2022-07-10T00:00:50;17.30;78.00
6738;DHT22;3406;49.902;8.596;2022-07-10T00:03:17;17.20;78.10
6738;DHT22;3406;49.902;8.596;2022-07-10T00:05:43;17.20;78.30
6738;DHT22;3406;49.902;8.596;2022-07-10T00:08:11;17.20;78.50
6738;DHT22;3406;49.902;8.596;2022-07-10T00:10:38;17.10;79.20
6738;DHT22;3406;49.902;8.596;2022-07-10T00:13:04;17.10;78.60
6738;DHT22;3406;49.902;8.596;2022-07-10T00:15:31;17.10;78.60
6738;DHT22;3406;49.902;8.596;2022-07-10T00:17:58;17.00;78.60
6738;DHT22;3406;49.902;8.596;2022-07-10T00:20:25;17.00;78.60
6738;DHT22;3406;49.902;8.596;2022-07-10T00:22:52;17.00;78.60
6738;DHT22;3406;49.902;8.596;2022-07-10T00:25:20;17.00;78.60
6738;DHT22;3406;49.902;8.596;2022-07-10T00:27:46;17.00;78.60
6738;DHT22;3406;49.902;8.596;2022-07-10T00:30:13;17.00;78.50
6738;DHT22;3406;49.902;8.596;2022-07-10T00:32:40;17.00;78.60
6738;DHT22;3406;49.902;8.596;2022-07-10T00:35:07;16.90;78.40
6738;DHT22;3406;49.902;8.596;2022-07-10T00:37:34;16.90;78.50
6738;DHT22;3406;49.902;8.596;2022-07-10T00:40:02;16.90;78.50
6738;DHT22;3406;49.902;8.596;2022-07-10T00:42:32;16.80;78.40
6738;DHT22;3406;49.902;8.596;2022-07-10T00:44:59;16.80;78.50
6738;DHT22;3406;49.902;8.596;2022-07-10T00:47:25;16.80;78.50
6738;DHT22;3406;49.902;8.596;2022-07-10T00:49:52;16.80;78.50
6738;DHT22;3406;49.902;8.596;2022-07-10T00:52:19;16.70;78.50
6738;DHT22;3406;49.902;8.596;2022-07-10T00:54:48;16.70;78.50
6738;DHT22;3406;49.902;8.596;2022-07-10T00:57:16;16.60;78.60
6738;DHT22;3406;49.902;8.596;2022-07-10T00:59:45;16.60;78.60
6738;DHT22;3406;49.902;8.596;2022-07-10T01:02:13;16.60;78.70
6738;DHT22;3406;49.902;8.596;2022-07-10T01:04:40;16.60;78.70
6738;DHT22;3406;49.902;8.596;2022-07-10T01:07:06;16.50;78.60
6738;DHT22;3406;49.902;8.596;2022-07-10T01:09:33;16.50;78.60
6738;DHT22;3406;49.902;8.596;2022-07-10T01:12:01;16.50;78.50
6738;DHT22;3406;49.902;8.596;2022-07-10T01:14:28;16.50;78.60
6738;DHT22;3406;49.902;8.596;2022-07-10T01:16:57;16.50;78.60
6738;DHT22;3406;49.902;8.596;2022-07-10T01:19:24;16.50;78.60
6738;DHT22;3406;49.902;8.596;2022-07-10T01:21:52;16.50;78.50
6738;DHT22;3406;49.902;8.596;2022-07-10T01:24:18;16.50;78.50
6738;DHT22;3406;49.902;8.596;2022-07-10T01:26:45;16.50;78.40
6738;DHT22;3406;49.902;8.596;2022-07-10T01:29:12;16.50;78.40
6738;DHT22;3406;49.902;8.596;2022-07-10T01:31:38;16.50;78.40
6738;DHT22;3406;49.902;8.596;2022-07-10T01:34:07;16.50;78.30
6738;DHT22;3406;49.902;8.596;2022-07-10T01:36:34;16.50;78.30
6738;DHT22;3406;49.902;8.596;2022-07-10T01:39:03;16.40;78.20
6738;DHT22;3406;49.902;8.596;2022-07-10T01:41:29;16.40;78.20
6738;DHT22;3406;49.902;8.596;2022-07-10T01:43:56;16.40;78.20
6738;DHT22;3406;49.902;8.596;2022-07-10T01:46:23;16.30;78.10
6738;DHT22;3406;49.902;8.596;2022-07-10T01:48:51;16.30;78.20
6738;DHT22;3406;49.902;8.596;2022-07-10T01:51:17;16.30;78.20
6738;DHT22;3406;49.902;8.596;2022-07-10T01:53:44;16.30;78.50
6738;DHT22;3406;49.902;8.596;2022-07-10T01:56:13;16.20;78.10
6738;DHT22;3406;49.902;8.596;2022-07-10T01:58:40;16.20;78.20
6738;DHT22;3406;49.902;8.596;2022-07-10T02:01:07;16.20;78.00
6738;DHT22;3406;49.902;8.596;2022-07-10T02:03:34;16.20;77.90
6738;DHT22;3406;49.902;8.596;2022-07-10T02:06:18;16.20;77.90
6738;DHT22;3406;49.902;8.596;2022-07-10T02:08:45;16.20;77.80
6738;DHT22;3406;49.902;8.596;2022-07-10T02:11:13;16.20;77.60
6738;DHT22;3406;49.902;8.596;2022-07-10T02:13:40;16.20;77.60
6738;DHT22;3406;49.902;8.596;2022-07-10T02:16:07;16.20;77.50
6738;DHT22;3406;49.902;8.596;2022-07-10T02:18:34;16.20;77.40
6738;DHT22;3406;49.902;8.596;2022-07-10T02:21:00;16.20;77.40
6738;DHT22;3406;49.902;8.596;2022-07-10T02:23:27;16.20;77.30
6738;DHT22;3406;49.902;8.596;2022-07-10T02:25:54;16.20;77.40
6738;DHT22;3406;49.902;8.596;2022-07-10T02:28:22;16.10;77.10
6738;DHT22;3406;49.902;8.596;2022-07-10T02:30:49;16.10;77.10
6738;DHT22;3406;49.902;8.596;2022-07-10T02:33:15;16.10;77.10
6738;DHT22;3406;49.902;8.596;2022-07-10T02:35:42;16.10;77.00
6738;DHT22;3406;49.902;8.596;2022-07-10T02:38:09;16.20;77.10
6738;DHT22;3406;49.902;8.596;2022-07-10T02:40:35;16.20;77.00
6738;DHT22;3406;49.902;8.596;2022-07-10T02:43:02;16.10;76.80
6738;DHT22;3406;49.902;8.596;2022-07-10T02:45:30;16.10;76.80
6738;DHT22;3406;49.902;8.596;2022-07-10T02:47:56;16.10;76.80
6738;DHT22;3406;49.902;8.596;2022-07-10T02:50:23;16.20;76.80
6738;DHT22;3406;49.902;8.596;2022-07-10T02:52:50;16.20;76.80
6738;DHT22;3406;49.902;8.596;2022-07-10T02:55:16;16.10;77.00
6738;DHT22;3406;49.902;8.596;2022-07-10T02:57:43;16.10;76.60
6738;DHT22;3406;49.902;8.596;2022-07-10T03:00:11;16.10;76.50
6738;DHT22;3406;49.902;8.596;2022-07-10T03:02:39;16.10;76.60
6738;DHT22;3406;49.902;8.596;2022-07-10T03:05:06;16.00;76.50
6738;DHT22;3406;49.902;8.596;2022-07-10T03:07:33;16.10;76.60
6738;DHT22;3406;49.902;8.596;2022-07-10T03:10:00;16.00;76.40
6738;DHT22;3406;49.902;8.596;2022-07-10T03:12:26;16.00;76.40
6738;DHT22;3406;49.902;8.596;2022-07-10T03:14:53;16.00;76.50
6738;DHT22;3406;49.902;8.596;2022-07-10T03:17:19;15.90;77.00
6738;DHT22;3406;49.902;8.596;2022-07-10T03:19:47;15.90;76.60
6738;DHT22;3406;49.902;8.596;2022-07-10T03:22:14;15.90;76.30
6738;DHT22;3406;49.902;8.596;2022-07-10T03:24:41;15.90;76.40
6738;DHT22;3406;49.902;8.596;2022-07-10T03:27:08;15.90;76.40
6738;DHT22;3406;49.902;8.596;2022-07-10T03:29:35;15.90;76.30
6738;DHT22;3406;49.902;8.596;2022-07-10T03:32:02;15.90;76.30
6738;DHT22;3406;49.902;8.596;2022-07-10T03:34:29;15.90;76.30
6738;DHT22;3406;49.902;8.596;2022-07-10T03:36:59;15.80;76.20
6738;DHT22;3406;49.902;8.596;2022-07-10T03:39:26;15.80;76.10
6738;DHT22;3406;49.902;8.596;2022-07-10T03:41:53;15.80;76.10
6738;DHT22;3406;49.902;8.596;2022-07-10T03:44:20;15.70;76.00
6738;DHT22;3406;49.902;8.596;2022-07-10T03:46:46;15.70;75.90
6738;DHT22;3406;49.902;8.596;2022-07-10T03:49:13;15.70;75.90
6738;DHT22;3406;49.902;8.596;2022-07-10T03:51:39;15.60;75.90
6738;DHT22;3406;49.902;8.596;2022-07-10T03:54:07;15.60;75.90
6738;DHT22;3406;49.902;8.596;2022-07-10T03:56:34;15.60;75.90
6738;DHT22;3406;49.902;8.596;2022-07-10T03:59:18;15.60;76.00
6738;DHT22;3406;49.902;8.596;2022-07-10T04:01:45;15.60;75.90
6738;DHT22;3406;49.902;8.596;2022-07-10T04:04:11;15.60;76.60
6738;DHT22;3406;49.902;8.596;2022-07-10T04:06:38;15.50;75.80
6738;DHT22;3406;49.902;8.596;2022-07-10T04:11:31;15.60;75.90
6738;DHT22;3406;49.902;8.596;2022-07-10T04:13:58;15.60;75.90
6738;DHT22;3406;49.902;8.596;2022-07-10T04:16:25;15.60;75.80
6738;DHT22;3406;49.902;8.596;2022-07-10T04:18:51;15.60;75.60
6738;DHT22;3406;49.902;8.596;2022-07-10T04:21:18;15.60;75.60
6738;DHT22;3406;49.902;8.596;2022-07-10T04:23:45;15.60;75.60
6738;DHT22;3406;49.902;8.596;2022-07-10T04:26:11;15.60;75.60
6738;DHT22;3406;49.902;8.596;2022-07-10T04:28:40;15.50;75.40
6738;DHT22;3406;49.902;8.596;2022-07-10T04:31:06;15.50;75.50
6738;DHT22;3406;49.902;8.596;2022-07-10T04:33:33;15.50;75.40
6738;DHT22;3406;49.902;8.596;2022-07-10T04:35:59;15.50;75.40
6738;DHT22;3406;49.902;8.596;2022-07-10T04:38:26;15.40;75.20
6738;DHT22;3406;49.902;8.596;2022-07-10T04:40:53;15.40;75.20
6738;DHT22;3406;49.902;8.596;2022-07-10T04:43:19;15.40;75.10
6738;DHT22;3406;49.902;8.596;2022-07-10T04:45:47;15.40;75.10
6738;DHT22;3406;49.902;8.596;2022-07-10T04:48:14;15.30;75.00
6738;DHT22;3406;49.902;8.596;2022-07-10T04:50:41;15.30;75.00
6738;DHT22;3406;49.902;8.596;2022-07-10T04:53:07;15.20;74.80
6738;DHT22;3406;49.902;8.596;2022-07-10T04:55:34;15.20;74.80
6738;DHT22;3406;49.902;8.596;2022-07-10T04:58:00;15.20;74.90
6738;DHT22;3406;49.902;8.596;2022-07-10T05:00:27;15.10;74.70
6738;DHT22;3406;49.902;8.596;2022-07-10T05:02:55;15.10;74.70
6738;DHT22;3406;49.902;8.596;2022-07-10T05:05:22;15.10;74.60
6738;DHT22;3406;49.902;8.596;2022-07-10T05:07:48;15.10;74.60
6738;DHT22;3406;49.902;8.596;2022-07-10T05:10:15;15.10;74.50
6738;DHT22;3406;49.902;8.596;2022-07-10T05:12:42;15.10;74.40
6738;DHT22;3406;49.902;8.596;2022-07-10T05:15:09;15.20;74.40
6738;DHT22;3406;49.902;8.596;2022-07-10T05:17:36;15.10;74.30
6738;DHT22;3406;49.902;8.596;2022-07-10T05:20:05;15.10;74.20
6738;DHT22;3406;49.902;8.596;2022-07-10T05:22:31;15.20;74.30
6738;DHT22;3406;49.902;8.596;2022-07-10T05:24:58;15.20;74.10
6738;DHT22;3406;49.902;8.596;2022-07-10T05:27:25;15.10;73.80
6738;DHT22;3406;49.902;8.596;2022-07-10T05:29:52;15.20;73.90
6738;DHT22;3406;49.902;8.596;2022-07-10T05:32:19;15.20;73.80
6738;DHT22;3406;49.902;8.596;2022-07-10T05:34:46;15.20;73.60
6738;DHT22;3406;49.902;8.596;2022-07-10T05:37:14;15.20;73.50
6738;DHT22;3406;49.902;8.596;2022-07-10T05:39:41;15.20;73.40
6738;DHT22;3406;49.902;8.596;2022-07-10T05:42:07;15.20;73.20
6738;DHT22;3406;49.902;8.596;2022-07-10T05:44:34;15.20;73.20
6738;DHT22;3406;49.902;8.596;2022-07-10T05:47:01;15.30;73.30
6738;DHT22;3406;49.902;8.596;2022-07-10T05:49:27;15.50;73.10
6738;DHT22;3406;49.902;8.596;2022-07-10T05:51:54;15.70;72.60
6738;DHT22;3406;49.902;8.596;2022-07-10T05:54:22;15.80;72.10
6738;DHT22;3406;49.902;8.596;2022-07-10T05:56:48;15.70;71.50
6738;DHT22;3406;49.902;8.596;2022-07-10T05:59:16;15.80;71.40
6738;DHT22;3406;49.902;8.596;2022-07-10T06:01:43;15.80;70.80
6738;DHT22;3406;49.902;8.596;2022-07-10T06:04:09;15.90;70.40
6738;DHT22;3406;49.902;8.596;2022-07-10T06:06:36;16.10;70.10
6738;DHT22;3406;49.902;8.596;2022-07-10T06:09:02;16.30;69.10
6738;DHT22;3406;49.902;8.596;2022-07-10T06:11:31;16.60;68.50
6738;DHT22;3406;49.902;8.596;2022-07-10T06:13:58;16.80;67.40
6738;DHT22;3406;49.902;8.596;2022-07-10T06:16:24;17.00;66.50
6738;DHT22;3406;49.902;8.596;2022-07-10T06:18:51;17.20;65.50
6738;DHT22;3406;49.902;8.596;2022-07-10T06:21:17;17.30;63.50
6738;DHT22;3406;49.902;8.596;2022-07-10T06:23:47;17.30;62.20
6738;DHT22;3406;49.902;8.596;2022-07-10T06:26:13;17.40;61.90
6738;DHT22;3406;49.902;8.596;2022-07-10T06:28:41;17.50;61.20
6738;DHT22;3406;49.902;8.596;2022-07-10T06:31:08;17.70;60.40
6738;DHT22;3406;49.902;8.596;2022-07-10T06:33:35;17.60;59.10
6738;DHT22;3406;49.902;8.596;2022-07-10T06:36:02;17.60;59.00
6738;DHT22;3406;49.902;8.596;2022-07-10T06:38:28;17.60;58.90
6738;DHT22;3406;49.902;8.596;2022-07-10T06:40:55;17.60;58.80
6738;DHT22;3406;49.902;8.596;2022-07-10T06:43:22;17.70;58.60
6738;DHT22;3406;49.902;8.596;2022-07-10T06:45:50;17.70;58.40
6738;DHT22;3406;49.902;8.596;2022-07-10T06:48:17;17.70;58.10
6738;DHT22;3406;49.902;8.596;2022-07-10T06:50:44;17.80;57.70
6738;DHT22;3406;49.902;8.596;2022-07-10T06:53:11;18.00;57.20
6738;DHT22;3406;49.902;8.596;2022-07-10T06:55:38;18.10;56.60
6738;DHT22;3406;49.902;8.596;2022-07-10T06:58:04;18.30;56.10
6738;DHT22;3406;49.902;8.596;2022-07-10T07:00:31;18.30;55.80
6738;DHT22;3406;49.902;8.596;2022-07-10T07:02:59;18.10;55.30
6738;DHT22;3406;49.902;8.596;2022-07-10T07:05:25;18.10;55.70
6738;DHT22;3406;49.902;8.596;2022-07-10T07:07:52;18.10;55.60
6738;DHT22;3406;49.902;8.596;2022-07-10T07:10:19;18.10;55.50
6738;DHT22;3406;49.902;8.596;2022-07-10T07:12:45;18.00;55.40
6738;DHT22;3406;49.902;8.596;2022-07-10T07:15:12;17.80;55.30
6738;DHT22;3406;49.902;8.596;2022-07-10T07:17:41;17.90;55.10
6738;DHT22;3406;49.902;8.596;2022-07-10T07:20:24;18.00;55.40
6738;DHT22;3406;49.902;8.596;2022-07-10T07:23:08;18.00;55.30
6738;DHT22;3406;49.902;8.596;2022-07-10T07:25:38;18.00;55.30
6738;DHT22;3406;49.902;8.596;2022-07-10T07:28:08;18.00;55.10
6738;DHT22;3406;49.902;8.596;2022-07-10T07:30:35;18.10;55.60
6738;DHT22;3406;49.902;8.596;2022-07-10T07:33:01;18.30;54.40
6738;DHT22;3406;49.902;8.596;2022-07-10T07:35:29;18.30;54.10
6738;DHT22;3406;49.902;8.596;2022-07-10T07:37:56;18.30;53.90
6738;DHT22;3406;49.902;8.596;2022-07-10T07:40:22;18.20;53.80
6738;DHT22;3406;49.902;8.596;2022-07-10T07:42:49;18.10;53.70
6738;DHT22;3406;49.902;8.596;2022-07-10T07:45:16;18.20;53.30
6738;DHT22;3406;49.902;8.596;2022-07-10T07:47:45;18.50;53.00
6738;DHT22;3406;49.902;8.596;2022-07-10T07:50:13;18.80;52.40
6738;DHT22;3406;49.902;8.596;2022-07-10T07:52:41;19.00;50.90
6738;DHT22;3406;49.902;8.596;2022-07-10T07:55:08;19.00;49.90
6738;DHT22;3406;49.902;8.596;2022-07-10T07:57:35;18.90;49.30
6738;DHT22;3406;49.902;8.596;2022-07-10T08:00:04;18.70;49.10
6738;DHT22;3406;49.902;8.596;2022-07-10T08:02:31;18.60;49.30
6738;DHT22;3406;49.902;8.596;2022-07-10T08:04:57;18.60;49.10
6738;DHT22;3406;49.902;8.596;2022-07-10T08:07:33;18.80;48.90
6738;DHT22;3406;49.902;8.596;2022-07-10T08:10:01;19.10;48.40
6738;DHT22;3406;49.902;8.596;2022-07-10T08:12:27;19.40;48.00
6738;DHT22;3406;49.902;8.596;2022-07-10T08:14:54;19.70;47.40
6738;DHT22;3406;49.902;8.596;2022-07-10T08:17:20;19.90;47.00
6738;DHT22;3406;49.902;8.596;2022-07-10T08:19:47;20.20;46.60
6738;DHT22;3406;49.902;8.596;2022-07-10T08:22:14;20.30;46.30
6738;DHT22;3406;49.902;8.596;2022-07-10T08:24:41;20.20;45.90
6738;DHT22;3406;49.902;8.596;2022-07-10T08:27:09;20.30;46.40
6738;DHT22;3406;49.902;8.596;2022-07-10T08:29:37;20.60;46.10
6738;DHT22;3406;49.902;8.596;2022-07-10T08:32:04;20.90;45.70
6738;DHT22;3406;49.902;8.596;2022-07-10T08:34:31;21.10;45.40
6738;DHT22;3406;49.902;8.596;2022-07-10T08:36:58;21.20;44.70
6738;DHT22;3406;49.902;8.596;2022-07-10T08:39:25;21.20;44.50
6738;DHT22;3406;49.902;8.596;2022-07-10T08:41:51;21.30;44.70
6738;DHT22;3406;49.902;8.596;2022-07-10T08:44:19;21.50;44.50
6738;DHT22;3406;49.902;8.596;2022-07-10T08:46:46;21.60;44.40
6738;DHT22;3406;49.902;8.596;2022-07-10T08:49:14;21.50;44.60
6738;DHT22;3406;49.902;8.596;2022-07-10T08:51:53;21.10;44.80
6738;DHT22;3406;49.902;8.596;2022-07-10T08:54:23;20.60;45.60
6738;DHT22;3406;49.902;8.596;2022-07-10T08:56:52;20.20;46.10
6738;DHT22;3406;49.902;8.596;2022-07-10T08:59:22;20.00;46.50
6738;DHT22;3406;49.902;8.596;2022-07-10T09:01:49;19.80;46.60
6738;DHT22;3406;49.902;8.596;2022-07-10T09:04:16;19.70;46.50
6738;DHT22;3406;49.902;8.596;2022-07-10T09:06:44;19.60;46.60
6738;DHT22;3406;49.902;8.596;2022-07-10T09:09:11;19.50;46.50
6738;DHT22;3406;49.902;8.596;2022-07-10T09:11:38;19.60;46.70
6738;DHT22;3406;49.902;8.596;2022-07-10T09:14:07;19.80;46.20
6738;DHT22;3406;49.902;8.596;2022-07-10T09:16:37;20.10;45.80
6738;DHT22;3406;49.902;8.596;2022-07-10T09:19:19;20.60;46.10
6738;DHT22;3406;49.902;8.596;2022-07-10T09:21:46;20.90;45.10
6738;DHT22;3406;49.902;8.596;2022-07-10T09:24:13;21.00;44.70
6738;DHT22;3406;49.902;8.596;2022-07-10T09:26:42;21.00;44.40
6738;DHT22;3406;49.902;8.596;2022-07-10T09:29:10;20.80;44.10
6738;DHT22;3406;49.902;8.596;2022-07-10T09:31:52;20.80;44.40
6738;DHT22;3406;49.902;8.596;2022-07-10T09:34:37;20.80;44.50
6738;DHT22;3406;49.902;8.596;2022-07-10T09:37:18;20.70;44.40
6738;DHT22;3406;49.902;8.596;2022-07-10T09:39:53;20.40;44.50
6738;DHT22;3406;49.902;8.596;2022-07-10T09:42:27;20.30;44.90
6738;DHT22;3406;49.902;8.596;2022-07-10T09:45:16;20.10;45.30
6738;DHT22;3406;49.902;8.596;2022-07-10T09:47:46;20.00;45.70
6738;DHT22;3406;49.902;8.596;2022-07-10T09:50:21;19.80;45.80
6738;DHT22;3406;49.902;8.596;2022-07-10T09:52:50;19.70;46.20
6738;DHT22;3406;49.902;8.596;2022-07-10T09:55:19;19.70;46.60
6738;DHT22;3406;49.902;8.596;2022-07-10T09:57:52;20.10;46.70
6738;DHT22;3406;49.902;8.596;2022-07-10T10:00:19;20.60;46.30
6738;DHT22;3406;49.902;8.596;2022-07-10T10:02:47;20.90;45.60
6738;DHT22;3406;49.902;8.596;2022-07-10T10:05:15;21.00;45.20
6738;DHT22;3406;49.902;8.596;2022-07-10T10:07:44;21.10;45.00
6738;DHT22;3406;49.902;8.596;2022-07-10T10:10:12;21.00;45.00
6738;DHT22;3406;49.902;8.596;2022-07-10T10:12:42;21.10;45.20
6738;DHT22;3406;49.902;8.596;2022-07-10T10:15:10;21.10;45.00
6738;DHT22;3406;49.902;8.596;2022-07-10T10:17:38;21.00;44.90
6738;DHT22;3406;49.902;8.596;2022-07-10T10:20:09;21.00;45.00
6738;DHT22;3406;49.902;8.596;2022-07-10T10:22:55;20.90;45.10
6738;DHT22;3406;49.902;8.596;2022-07-10T10:25:24;20.90;45.40
6738;DHT22;3406;49.902;8.596;2022-07-10T10:27:51;21.10;45.50
6738;DHT22;3406;49.902;8.596;2022-07-10T10:30:18;21.20;45.60
6738;DHT22;3406;49.902;8.596;2022-07-10T10:32:45;21.20;45.40
6738;DHT22;3406;49.902;8.596;2022-07-10T10:35:42;21.20;45.60
6738;DHT22;3406;49.902;8.596;2022-07-10T10:38:09;21.30;45.50
6738;DHT22;3406;49.902;8.596;2022-07-10T10:40:36;21.50;45.10
6738;DHT22;3406;49.902;8.596;2022-07-10T10:43:16;21.30;44.80
6738;DHT22;3406;49.902;8.596;2022-07-10T10:45:43;21.10;44.90
6738;DHT22;3406;49.902;8.596;2022-07-10T10:48:11;20.80;44.90
6738;DHT22;3406;49.902;8.596;2022-07-10T10:50:41;20.60;45.20
6738;DHT22;3406;49.902;8.596;2022-07-10T10:53:15;20.60;45.40
6738;DHT22;3406;49.902;8.596;2022-07-10T10:56:23;20.50;45.30
6738;DHT22;3406;49.902;8.596;2022-07-10T10:58:50;20.50;45.70
6738;DHT22;3406;49.902;8.596;2022-07-10T11:01:28;20.50;45.70
6738;DHT22;3406;49.902;8.596;2022-07-10T11:04:15;20.60;45.90
6738;DHT22;3406;49.902;8.596;2022-07-10T11:06:45;20.80;45.80
6738;DHT22;3406;49.902;8.596;2022-07-10T11:09:24;20.80;45.80
6738;DHT22;3406;49.902;8.596;2022-07-10T11:11:58;20.80;45.90
6738;DHT22;3406;49.902;8.596;2022-07-10T11:14:26;20.80;46.10
6738;DHT22;3406;49.902;8.596;2022-07-10T11:16:54;20.70;46.30
6738;DHT22;3406;49.902;8.596;2022-07-10T11:19:25;20.80;46.30
6738;DHT22;3406;49.902;8.596;2022-07-10T11:22:03;20.90;46.30
6738;DHT22;3406;49.902;8.596;2022-07-10T11:24:41;21.10;46.10
6738;DHT22;3406;49.902;8.596;2022-07-10T11:27:34;21.10;45.90
6738;DHT22;3406;49.902;8.596;2022-07-10T11:30:03;21.10;45.80
6738;DHT22;3406;49.902;8.596;2022-07-10T11:32:30;21.10;45.70
6738;DHT22;3406;49.902;8.596;2022-07-10T11:34:57;21.10;45.80
6738;DHT22;3406;49.902;8.596;2022-07-10T11:37:25;21.30;45.90
6738;DHT22;3406;49.902;8.596;2022-07-10T11:40:08;21.50;45.80
6738;DHT22;3406;49.902;8.596;2022-07-10T11:42:47;21.70;45.50
6738;DHT22;3406;49.902;8.596;2022-07-10T11:45:23;22.00;45.40
6738;DHT22;3406;49.902;8.596;2022-07-10T11:47:50;22.30;45.20
6738;DHT22;3406;49.902;8.596;2022-07-10T11:50:17;22.30;44.60
6738;DHT22;3406;49.902;8.596;2022-07-10T11:52:45;22.40;44.40
6738;DHT22;3406;49.902;8.596;2022-07-10T11:55:15;22.30;44.10
6738;DHT22;3406;49.902;8.596;2022-07-10T11:57:42;22.20;44.30
6738;DHT22;3406;49.902;8.596;2022-07-10T12:00:21;22.20;44.40
6738;DHT22;3406;49.902;8.596;2022-07-10T12:02:49;22.20;44.20
6738;DHT22;3406;49.902;8.596;2022-07-10T12:05:30;22.20;44.20
6738;DHT22;3406;49.902;8.596;2022-07-10T12:07:58;22.10;44.20
6738;DHT22;3406;49.902;8.596;2022-07-10T12:10:26;22.10;44.30
6738;DHT22;3406;49.902;8.596;2022-07-10T12:12:53;22.00;44.10
6738;DHT22;3406;49.902;8.596;2022-07-10T12:15:35;22.00;44.40
6738;DHT22;3406;49.902;8.596;2022-07-10T12:18:04;22.10;44.50
6738;DHT22;3406;49.902;8.596;2022-07-10T12:20:31;22.10;44.30
6738;DHT22;3406;49.902;8.596;2022-07-10T12:23:00;22.10;44.30
6738;DHT22;3406;49.902;8.596;2022-07-10T12:25:27;22.10;44.30
6738;DHT22;3406;49.902;8.596;2022-07-10T12:27:57;22.10;44.40
6738;DHT22;3406;49.902;8.596;2022-07-10T12:30:39;22.10;44.50
6738;DHT22;3406;49.902;8.596;2022-07-10T12:33:10;22.20;44.40
6738;DHT22;3406;49.902;8.596;2022-07-10T12:35:51;22.20;44.30
6738;DHT22;3406;49.902;8.596;2022-07-10T12:38:20;22.40;44.30
6738;DHT22;3406;49.902;8.596;2022-07-10T12:40:47;22.50;44.20
6738;DHT22;3406;49.902;8.596;2022-07-10T12:43:27;22.60;44.00
6738;DHT22;3406;49.902;8.596;2022-07-10T12:46:14;22.60;43.90
6738;DHT22;3406;49.902;8.596;2022-07-10T12:48:42;22.70;43.80
6738;DHT22;3406;49.902;8.596;2022-07-10T12:51:20;22.70;43.60
6738;DHT22;3406;49.902;8.596;2022-07-10T12:53:48;22.50;43.70
6738;DHT22;3406;49.902;8.596;2022-07-10T12:56:27;22.50;44.00
6738;DHT22;3406;49.902;8.596;2022-07-10T12:58:53;22.50;44.00
6738;DHT22;3406;49.902;8.596;2022-07-10T13:01:20;22.40;43.80
6738;DHT22;3406;49.902;8.596;2022-07-10T13:03:46;22.40;43.80
6738;DHT22;3406;49.902;8.596;2022-07-10T13:06:25;22.50;43.80
6738;DHT22;3406;49.902;8.596;2022-07-10T13:08:54;22.50;43.80
6738;DHT22;3406;49.902;8.596;2022-07-10T13:11:21;22.60;43.70
6738;DHT22;3406;49.902;8.596;2022-07-10T13:13:48;22.70;43.60
6738;DHT22;3406;49.902;8.596;2022-07-10T13:16:14;22.80;43.60
6738;DHT22;3406;49.902;8.596;2022-07-10T13:18:42;23.00;43.30
6738;DHT22;3406;49.902;8.596;2022-07-10T13:21:09;22.90;42.90
6738;DHT22;3406;49.902;8.596;2022-07-10T13:23:36;22.80;43.00
6738;DHT22;3406;49.902;8.596;2022-07-10T13:26:05;22.80;43.10
6738;DHT22;3406;49.902;8.596;2022-07-10T13:28:33;22.80;43.30
6738;DHT22;3406;49.902;8.596;2022-07-10T13:30:59;22.80;43.30
6738;DHT22;3406;49.902;8.596;2022-07-10T13:33:26;22.80;43.40
6738;DHT22;3406;49.902;8.596;2022-07-10T13:35:54;22.80;43.60
6738;DHT22;3406;49.902;8.596;2022-07-10T13:38:20;22.80;43.60
6738;DHT22;3406;49.902;8.596;2022-07-10T13:40:48;22.80;43.60
6738;DHT22;3406;49.902;8.596;2022-07-10T13:43:16;22.80;43.50
6738;DHT22;3406;49.902;8.596;2022-07-10T13:45:45;22.80;43.40
6738;DHT22;3406;49.902;8.596;2022-07-10T13:48:13;22.90;43.40
6738;DHT22;3406;49.902;8.596;2022-07-10T13:50:41;22.90;43.40
6738;DHT22;3406;49.902;8.596;2022-07-10T13:53:08;23.10;43.50
6738;DHT22;3406;49.902;8.596;2022-07-10T13:55:35;23.20;43.30
6738;DHT22;3406;49.902;8.596;2022-07-10T13:58:02;23.20;43.30
6738;DHT22;3406;49.902;8.596;2022-07-10T14:00:30;23.30;43.20
6738;DHT22;3406;49.902;8.596;2022-07-10T14:02:56;23.40;43.10
6738;DHT22;3406;49.902;8.596;2022-07-10T14:05:25;23.40;42.90
6738;DHT22;3406;49.902;8.596;2022-07-10T14:07:52;23.40;43.10
6738;DHT22;3406;49.902;8.596;2022-07-10T14:10:19;23.50;42.90
6738;DHT22;3406;49.902;8.596;2022-07-10T14:12:46;23.60;42.70
6738;DHT22;3406;49.902;8.596;2022-07-10T14:15:13;23.50;42.60
6738;DHT22;3406;49.902;8.596;2022-07-10T14:17:41;23.60;42.70
6738;DHT22;3406;49.902;8.596;2022-07-10T14:20:09;23.60;42.60
6738;DHT22;3406;49.902;8.596;2022-07-10T14:22:36;23.50;42.70
6738;DHT22;3406;49.902;8.596;2022-07-10T14:25:04;23.40;42.90
6738;DHT22;3406;49.902;8.596;2022-07-10T14:27:31;23.20;43.00
6738;DHT22;3406;49.902;8.596;2022-07-10T14:29:58;23.00;43.40
6738;DHT22;3406;49.902;8.596;2022-07-10T14:32:25;22.90;43.60
6738;DHT22;3406;49.902;8.596;2022-07-10T14:34:53;22.80;43.70
6738;DHT22;3406;49.902;8.596;2022-07-10T14:37:19;22.70;43.70
6738;DHT22;3406;49.902;8.596;2022-07-10T14:39:47;22.70;43.80
6738;DHT22;3406;49.902;8.596;2022-07-10T14:42:14;23.00;43.80
6738;DHT22;3406;49.902;8.596;2022-07-10T14:44:41;23.10;43.60
6738;DHT22;3406;49.902;8.596;2022-07-10T14:47:08;23.30;43.60
6738;DHT22;3406;49.902;8.596;2022-07-10T14:49:34;23.30;43.60
6738;DHT22;3406;49.902;8.596;2022-07-10T14:52:03;23.20;43.40
6738;DHT22;3406;49.902;8.596;2022-07-10T14:54:30;23.00;43.70
6738;DHT22;3406;49.902;8.596;2022-07-10T14:56:56;22.90;44.00
6738;DHT22;3406;49.902;8.596;2022-07-10T14:59:23;22.90;44.20
6738;DHT22;3406;49.902;8.596;2022-07-10T15:01:50;22.70;44.40
6738;DHT22;3406;49.902;8.596;2022-07-10T15:04:17;22.60;44.80
6738;DHT22;3406;49.902;8.596;2022-07-10T15:06:43;22.40;45.10
6738;DHT22;3406;49.902;8.596;2022-07-10T15:09:14;22.40;45.40
6738;DHT22;3406;49.902;8.596;2022-07-10T15:11:41;22.20;45.80
6738;DHT22;3406;49.902;8.596;2022-07-10T15:14:08;22.10;46.20
6738;DHT22;3406;49.902;8.596;2022-07-10T15:16:34;22.00;47.20
6738;DHT22;3406;49.902;8.596;2022-07-10T15:19:01;21.90;47.00
6738;DHT22;3406;49.902;8.596;2022-07-10T15:21:28;21.80;48.10
6738;DHT22;3406;49.902;8.596;2022-07-10T15:23:56;21.60;47.80
6738;DHT22;3406;49.902;8.596;2022-07-10T15:26:24;21.50;48.20
6738;DHT22;3406;49.902;8.596;2022-07-10T15:28:50;21.50;48.60
6738;DHT22;3406;49.902;8.596;2022-07-10T15:31:17;21.40;48.70
6738;DHT22;3406;49.902;8.596;2022-07-10T15:33:44;21.50;48.80
6738;DHT22;3406;49.902;8.596;2022-07-10T15:36:11;21.60;48.90
6738;DHT22;3406;49.902;8.596;2022-07-10T15:38:38;21.60;48.80
6738;DHT22;3406;49.902;8.596;2022-07-10T15:41:04;21.60;48.90
6738;DHT22;3406;49.902;8.596;2022-07-10T15:43:32;21.70;49.00
6738;DHT22;3406;49.902;8.596;2022-07-10T15:45:59;21.80;48.90
6738;DHT22;3406;49.902;8.596;2022-07-10T15:48:26;21.90;48.90
6738;DHT22;3406;49.902;8.596;2022-07-10T15:50:52;22.00;48.80
6738;DHT22;3406;49.902;8.596;2022-07-10T15:53:19;22.10;48.70
6738;DHT22;3406;49.902;8.596;2022-07-10T15:55:46;22.10;48.60
6738;DHT22;3406;49.902;8.596;2022-07-10T15:58:13;22.10;48.60
6738;DHT22;3406;49.902;8.596;2022-07-10T16:00:40;22.20;48.60
6738;DHT22;3406;49.902;8.596;2022-07-10T16:03:07;22.30;48.40
6738;DHT22;3406;49.902;8.596;2022-07-10T16:05:34;22.30;48.40
6738;DHT22;3406;49.902;8.596;2022-07-10T16:08:00;22.10;48.40
6738;DHT22;3406;49.902;8.596;2022-07-10T16:12:55;21.90;48.70
6738;DHT22;3406;49.902;8.596;2022-07-10T16:15:21;21.90;48.80